sensor_id;sensor_type;location;lat;lon;timestamp;temperature;humidity
39079;DHT22;24829;49.208;12.080;2022-07-11T00:00:11;15.30;99.90
39079;DHT22;24829;49.208;12.080;2022-07-11T00:02:37;15.30;99.90
39079;DHT22;24829;49.208;12.080;2022-07-11T00:05:05;15.30;99.90
39079;DHT22;24829;49.208;12.080;2022-07-11T00:07:30;15.20;99.90
39079;DHT22;24829;49.208;12.080;2022-07-11T00:09:56;15.30;99.90
39079;DHT22;24829;49.208;12.080;2022-07-11T00:12:22;15.30;99.90
39079;DHT22;24829;49.208;12.080;2022-07-11T00:14:52;15.30;99.90
39079;DHT22;24829;49.208;12.080;2022-07-11T00:17:18;15.30;99.90
39079;DHT22;24829;49.208;12.080;2022-07-11T00:19:43;15.30;99.90
39079;DHT22;24829;49.208;12.080;2022-07-11T00:22:11;15.30;99.90
39079;DHT22;24829;49.208;12.080;2022-07-11T00:24:36;15.30;99.90
39079;DHT22;24829;49.208;12.080;2022-07-11T00:27:02;15.20;99.90
39079;DHT22;24829;49.208;12.080;2022-07-11T00:29:28;15.20;99.90
39079;DHT22;24829;49.208;12.080;2022-07-11T00:31:54;15.20;99.90
39079;DHT22;24829;49.208;12.080;2022-07-11T00:34:20;15.20;99.90
39079;DHT22;24829;49.208;12.080;2022-07-11T00:36:46;15.20;99.90
39079;DHT22;24829;49.208;12.080;2022-07-11T00:39:12;15.20;99.90
39079;DHT22;24829;49.208;12.080;2022-07-11T00:41:37;15.20;99.90
39079;DHT22;24829;49.208;12.080;2022-07-11T00:44:03;15.20;99.90
39079;DHT22;24829;49.208;12.080;2022-07-11T00:46:29;15.20;99.90
39079;DHT22;24829;49.208;12.080;2022-07-11T00:48:55;15.20;99.90
39079;DHT22;24829;49.208;12.080;2022-07-11T00:51:22;15.20;99.90
39079;DHT22;24829;49.208;12.080;2022-07-11T00:53:53;15.10;99.90
39079;DHT22;24829;49.208;12.080;2022-07-11T00:56:20;15.10;99.90
39079;DHT22;24829;49.208;12.080;2022-07-11T00:58:50;15.00;99.90
39079;DHT22;24829;49.208;12.080;2022-07-11T01:01:17;15.00;99.90
39079;DHT22;24829;49.208;12.080;2022-07-11T01:03:42;15.00;99.90
39079;DHT22;24829;49.208;12.080;2022-07-11T01:06:09;14.90;99.90
39079;DHT22;24829;49.208;12.080;2022-07-11T01:08:35;14.90;99.90
39079;DHT22;24829;49.208;12.080;2022-07-11T01:11:02;15.00;99.90
39079;DHT22;24829;49.208;12.080;2022-07-11T01:13:28;14.90;99.90
39079;DHT22;24829;49.208;12.080;2022-07-11T01:16:16;14.90;99.90
39079;DHT22;24829;49.208;12.080;2022-07-11T01:18:46;14.90;99.90
39079;DHT22;24829;49.208;12.080;2022-07-11T01:21:47;15.00;99.90
39079;DHT22;24829;49.208;12.080;2022-07-11T01:24:14;15.00;99.90
39079;DHT22;24829;49.208;12.080;2022-07-11T01:26:40;15.00;99.90
39079;DHT22;24829;49.208;12.080;2022-07-11T01:29:13;15.00;99.90
39079;DHT22;24829;49.208;12.080;2022-07-11T01:31:40;15.00;99.90
39079;DHT22;24829;49.208;12.080;2022-07-11T01:34:06;15.00;99.90
39079;DHT22;24829;49.208;12.080;2022-07-11T01:36:32;15.00;99.90
39079;DHT22;24829;49.208;12.080;2022-07-11T01:38:57;15.00;99.90
39079;DHT22;24829;49.208;12.080;2022-07-11T01:41:23;15.00;99.90
39079;DHT22;24829;49.208;12.080;2022-07-11T01:43:48;15.00;99.90
39079;DHT22;24829;49.208;12.080;2022-07-11T01:46:14;15.00;99.90
39079;DHT22;24829;49.208;12.080;2022-07-11T01:48:42;15.00;99.90
39079;DHT22;24829;49.208;12.080;2022-07-11T01:51:07;15.00;99.90
39079;DHT22;24829;49.208;12.080;2022-07-11T01:53:33;15.00;99.90
39079;DHT22;24829;49.208;12.080;2022-07-11T01:55:58;15.10;99.90
39079;DHT22;24829;49.208;12.080;2022-07-11T01:58:24;15.10;99.90
39079;DHT22;24829;49.208;12.080;2022-07-11T02:00:49;15.10;99.90
39079;DHT22;24829;49.208;12.080;2022-07-11T02:03:15;15.10;99.90
39079;DHT22;24829;49.208;12.080;2022-07-11T02:05:42;15.10;99.90
39079;DHT22;24829;49.208;12.080;2022-07-11T02:08:08;15.00;99.90
39079;DHT22;24829;49.208;12.080;2022-07-11T02:10:44;15.00;99.90
39079;DHT22;24829;49.208;12.080;2022-07-11T02:13:11;15.00;99.90
39079;DHT22;24829;49.208;12.080;2022-07-11T02:15:37;15.00;99.90
39079;DHT22;24829;49.208;12.080;2022-07-11T02:18:03;15.00;99.90
39079;DHT22;24829;49.208;12.080;2022-07-11T02:20:29;15.00;99.90
39079;DHT22;24829;49.208;12.080;2022-07-11T02:22:54;15.00;99.90
39079;DHT22;24829;49.208;12.080;2022-07-11T02:25:21;15.00;99.90
39079;DHT22;24829;49.208;12.080;2022-07-11T02:27:48;14.90;99.90
39079;DHT22;24829;49.208;12.080;2022-07-11T02:30:14;14.90;99.90
39079;DHT22;24829;49.208;12.080;2022-07-11T02:32:39;14.90;99.90
39079;DHT22;24829;49.208;12.080;2022-07-11T02:35:05;14.90;99.90
39079;DHT22;24829;49.208;12.080;2022-07-11T02:37:31;14.90;99.90
39079;DHT22;24829;49.208;12.080;2022-07-11T02:39:57;14.80;99.90
39079;DHT22;24829;49.208;12.080;2022-07-11T02:42:22;14.80;99.90
39079;DHT22;24829;49.208;12.080;2022-07-11T02:44:48;14.80;99.90
39079;DHT22;24829;49.208;12.080;2022-07-11T02:47:13;14.80;99.90
39079;DHT22;24829;49.208;12.080;2022-07-11T02:49:42;14.80;99.90
39079;DHT22;24829;49.208;12.080;2022-07-11T02:52:08;14.80;99.90
39079;DHT22;24829;49.208;12.080;2022-07-11T02:54:33;14.80;99.90
39079;DHT22;24829;49.208;12.080;2022-07-11T02:56:59;14.70;99.90
39079;DHT22;24829;49.208;12.080;2022-07-11T02:59:24;14.80;99.90
39079;DHT22;24829;49.208;12.080;2022-07-11T03:01:50;14.70;99.90
39079;DHT22;24829;49.208;12.080;2022-07-11T03:04:16;14.70;99.90
39079;DHT22;24829;49.208;12.080;2022-07-11T03:06:42;14.70;99.90
39079;DHT22;24829;49.208;12.080;2022-07-11T03:09:08;14.70;99.90
39079;DHT22;24829;49.208;12.080;2022-07-11T03:11:35;14.70;99.90
39079;DHT22;24829;49.208;12.080;2022-07-11T03:14:00;14.70;99.90
39079;DHT22;24829;49.208;12.080;2022-07-11T03:16:27;14.70;99.90
39079;DHT22;24829;49.208;12.080;2022-07-11T03:18:53;14.70;99.90
39079;DHT22;24829;49.208;12.080;2022-07-11T03:21:18;14.70;99.90
39079;DHT22;24829;49.208;12.080;2022-07-11T03:23:44;14.70;99.90
39079;DHT22;24829;49.208;12.080;2022-07-11T03:26:09;14.70;99.90
39079;DHT22;24829;49.208;12.080;2022-07-11T03:28:35;14.70;99.90
39079;DHT22;24829;49.208;12.080;2022-07-11T03:31:00;14.70;99.90
39079;DHT22;24829;49.208;12.080;2022-07-11T03:33:27;14.70;99.90
39079;DHT22;24829;49.208;12.080;2022-07-11T03:35:52;14.70;99.90
39079;DHT22;24829;49.208;12.080;2022-07-11T03:38:19;14.70;99.90
39079;DHT22;24829;49.208;12.080;2022-07-11T03:40:46;14.70;99.90
39079;DHT22;24829;49.208;12.080;2022-07-11T03:43:12;14.80;99.90
39079;DHT22;24829;49.208;12.080;2022-07-11T03:45:38;14.80;99.90
39079;DHT22;24829;49.208;12.080;2022-07-11T03:48:04;14.90;99.90
39079;DHT22;24829;49.208;12.080;2022-07-11T03:50:30;15.00;99.90
39079;DHT22;24829;49.208;12.080;2022-07-11T03:52:56;15.00;99.90
39079;DHT22;24829;49.208;12.080;2022-07-11T03:55:22;15.10;99.90
39079;DHT22;24829;49.208;12.080;2022-07-11T03:57:48;15.10;99.90
39079;DHT22;24829;49.208;12.080;2022-07-11T04:00:14;15.10;99.90
39079;DHT22;24829;49.208;12.080;2022-07-11T04:02:40;15.20;99.90
39079;DHT22;24829;49.208;12.080;2022-07-11T04:05:05;15.20;99.90
39079;DHT22;24829;49.208;12.080;2022-07-11T04:07:31;15.20;99.90
39079;DHT22;24829;49.208;12.080;2022-07-11T04:09:57;15.20;99.90
39079;DHT22;24829;49.208;12.080;2022-07-11T04:12:23;15.20;99.90
39079;DHT22;24829;49.208;12.080;2022-07-11T04:14:48;15.20;99.90
39079;DHT22;24829;49.208;12.080;2022-07-11T04:17:14;15.30;99.90
39079;DHT22;24829;49.208;12.080;2022-07-11T04:19:40;15.30;99.90
39079;DHT22;24829;49.208;12.080;2022-07-11T04:22:06;15.30;99.90
39079;DHT22;24829;49.208;12.080;2022-07-11T04:24:32;15.30;99.90
39079;DHT22;24829;49.208;12.080;2022-07-11T04:26:57;15.30;99.90
39079;DHT22;24829;49.208;12.080;2022-07-11T04:29:24;15.10;99.90
39079;DHT22;24829;49.208;12.080;2022-07-11T04:31:49;15.00;99.90
39079;DHT22;24829;49.208;12.080;2022-07-11T04:34:16;15.00;99.90
39079;DHT22;24829;49.208;12.080;2022-07-11T04:36:45;14.80;99.90
39079;DHT22;24829;49.208;12.080;2022-07-11T04:39:11;14.70;99.90
39079;DHT22;24829;49.208;12.080;2022-07-11T04:41:37;14.60;99.90
39079;DHT22;24829;49.208;12.080;2022-07-11T04:44:03;14.50;99.90
39079;DHT22;24829;49.208;12.080;2022-07-11T04:46:29;14.50;99.90
39079;DHT22;24829;49.208;12.080;2022-07-11T04:48:55;14.40;99.90
39079;DHT22;24829;49.208;12.080;2022-07-11T04:51:21;14.40;99.90
39079;DHT22;24829;49.208;12.080;2022-07-11T04:53:47;14.40;99.90
39079;DHT22;24829;49.208;12.080;2022-07-11T04:56:13;14.40;99.90
39079;DHT22;24829;49.208;12.080;2022-07-11T04:58:39;14.50;99.90
39079;DHT22;24829;49.208;12.080;2022-07-11T05:01:04;14.50;99.90
39079;DHT22;24829;49.208;12.080;2022-07-11T05:03:30;14.60;99.90
39079;DHT22;24829;49.208;12.080;2022-07-11T05:05:57;14.60;99.90
39079;DHT22;24829;49.208;12.080;2022-07-11T05:08:23;14.70;99.90
39079;DHT22;24829;49.208;12.080;2022-07-11T05:10:49;14.60;99.90
39079;DHT22;24829;49.208;12.080;2022-07-11T05:13:14;14.60;99.90
39079;DHT22;24829;49.208;12.080;2022-07-11T05:15:40;14.70;99.90
39079;DHT22;24829;49.208;12.080;2022-07-11T05:18:06;14.70;99.90
39079;DHT22;24829;49.208;12.080;2022-07-11T05:20:31;14.70;99.90
39079;DHT22;24829;49.208;12.080;2022-07-11T05:22:58;14.70;99.90
39079;DHT22;24829;49.208;12.080;2022-07-11T05:25:24;14.70;99.90
39079;DHT22;24829;49.208;12.080;2022-07-11T05:27:49;14.70;99.90
39079;DHT22;24829;49.208;12.080;2022-07-11T05:30:15;14.70;99.90
39079;DHT22;24829;49.208;12.080;2022-07-11T05:32:41;14.70;99.90
39079;DHT22;24829;49.208;12.080;2022-07-11T05:35:07;14.80;99.90
39079;DHT22;24829;49.208;12.080;2022-07-11T05:37:33;14.80;99.90
39079;DHT22;24829;49.208;12.080;2022-07-11T05:39:58;14.90;99.90
39079;DHT22;24829;49.208;12.080;2022-07-11T05:42:24;15.00;99.90
39079;DHT22;24829;49.208;12.080;2022-07-11T05:44:49;15.00;99.90
39079;DHT22;24829;49.208;12.080;2022-07-11T05:47:15;15.00;99.90
39079;DHT22;24829;49.208;12.080;2022-07-11T05:49:41;15.00;99.90
39079;DHT22;24829;49.208;12.080;2022-07-11T05:52:06;15.00;99.90
39079;DHT22;24829;49.208;12.080;2022-07-11T05:54:32;14.90;99.90
39079;DHT22;24829;49.208;12.080;2022-07-11T05:56:58;15.00;99.90
39079;DHT22;24829;49.208;12.080;2022-07-11T05:59:23;14.90;99.90
39079;DHT22;24829;49.208;12.080;2022-07-11T06:01:49;14.90;99.90
39079;DHT22;24829;49.208;12.080;2022-07-11T06:04:14;14.80;99.90
39079;DHT22;24829;49.208;12.080;2022-07-11T06:06:40;14.80;99.90
39079;DHT22;24829;49.208;12.080;2022-07-11T06:09:06;14.80;99.90
39079;DHT22;24829;49.208;12.080;2022-07-11T06:11:31;14.80;99.90
39079;DHT22;24829;49.208;12.080;2022-07-11T06:13:58;14.90;99.90
39079;DHT22;24829;49.208;12.080;2022-07-11T06:16:23;14.80;99.90
39079;DHT22;24829;49.208;12.080;2022-07-11T06:18:49;14.80;99.90
39079;DHT22;24829;49.208;12.080;2022-07-11T06:21:16;14.80;99.90
39079;DHT22;24829;49.208;12.080;2022-07-11T06:23:42;14.80;99.90
39079;DHT22;24829;49.208;12.080;2022-07-11T06:26:08;14.80;99.90
39079;DHT22;24829;49.208;12.080;2022-07-11T06:28:34;14.70;99.90
39079;DHT22;24829;49.208;12.080;2022-07-11T06:31:00;14.70;99.90
39079;DHT22;24829;49.208;12.080;2022-07-11T06:33:27;14.70;99.90
39079;DHT22;24829;49.208;12.080;2022-07-11T06:35:52;14.70;99.90
39079;DHT22;24829;49.208;12.080;2022-07-11T06:38:18;14.70;99.90
39079;DHT22;24829;49.208;12.080;2022-07-11T06:40:43;14.80;99.90
39079;DHT22;24829;49.208;12.080;2022-07-11T06:43:09;14.80;99.90
39079;DHT22;24829;49.208;12.080;2022-07-11T06:45:35;14.90;99.90
39079;DHT22;24829;49.208;12.080;2022-07-11T06:48:01;15.00;99.90
39079;DHT22;24829;49.208;12.080;2022-07-11T06:50:27;15.20;99.90
39079;DHT22;24829;49.208;12.080;2022-07-11T06:52:53;15.30;99.90
39079;DHT22;24829;49.208;12.080;2022-07-11T06:55:18;15.40;99.90
39079;DHT22;24829;49.208;12.080;2022-07-11T06:57:44;15.40;99.90
39079;DHT22;24829;49.208;12.080;2022-07-11T07:00:10;15.40;99.90
39079;DHT22;24829;49.208;12.080;2022-07-11T07:02:36;15.50;99.90
39079;DHT22;24829;49.208;12.080;2022-07-11T07:05:04;15.40;99.90
39079;DHT22;24829;49.208;12.080;2022-07-11T07:07:30;15.40;99.90
39079;DHT22;24829;49.208;12.080;2022-07-11T07:09:55;15.50;99.90
39079;DHT22;24829;49.208;12.080;2022-07-11T07:12:21;15.50;99.90
39079;DHT22;24829;49.208;12.080;2022-07-11T07:14:47;15.50;99.90
39079;DHT22;24829;49.208;12.080;2022-07-11T07:17:13;15.40;99.90
39079;DHT22;24829;49.208;12.080;2022-07-11T07:19:39;15.50;99.90
39079;DHT22;24829;49.208;12.080;2022-07-11T07:22:04;15.50;99.90
39079;DHT22;24829;49.208;12.080;2022-07-11T07:24:31;15.50;99.90
39079;DHT22;24829;49.208;12.080;2022-07-11T07:26:57;15.50;99.90
39079;DHT22;24829;49.208;12.080;2022-07-11T07:29:23;15.50;99.90
39079;DHT22;24829;49.208;12.080;2022-07-11T07:31:48;15.50;99.90
39079;DHT22;24829;49.208;12.080;2022-07-11T07:34:14;15.50;99.90
39079;DHT22;24829;49.208;12.080;2022-07-11T07:36:40;15.50;99.90
39079;DHT22;24829;49.208;12.080;2022-07-11T07:39:05;15.50;99.90
39079;DHT22;24829;49.208;12.080;2022-07-11T07:41:31;15.40;99.90
39079;DHT22;24829;49.208;12.080;2022-07-11T07:43:57;15.40;99.90
39079;DHT22;24829;49.208;12.080;2022-07-11T07:46:22;15.50;99.90
39079;DHT22;24829;49.208;12.080;2022-07-11T07:48:48;15.60;99.90
39079;DHT22;24829;49.208;12.080;2022-07-11T07:51:13;15.80;99.90
39079;DHT22;24829;49.208;12.080;2022-07-11T07:53:39;16.10;99.90
39079;DHT22;24829;49.208;12.080;2022-07-11T07:56:05;16.30;99.90
39079;DHT22;24829;49.208;12.080;2022-07-11T07:58:31;16.60;99.90
39079;DHT22;24829;49.208;12.080;2022-07-11T08:00:56;17.00;99.90
39079;DHT22;24829;49.208;12.080;2022-07-11T08:03:40;17.40;99.90
39079;DHT22;24829;49.208;12.080;2022-07-11T08:06:06;17.60;99.90
39079;DHT22;24829;49.208;12.080;2022-07-11T08:08:32;17.50;99.90
39079;DHT22;24829;49.208;12.080;2022-07-11T08:10:57;17.30;99.90
39079;DHT22;24829;49.208;12.080;2022-07-11T08:13:26;17.20;99.90
39079;DHT22;24829;49.208;12.080;2022-07-11T08:15:52;17.00;99.90
39079;DHT22;24829;49.208;12.080;2022-07-11T08:18:17;17.00;99.90
39079;DHT22;24829;49.208;12.080;2022-07-11T08:20:43;16.90;99.90
39079;DHT22;24829;49.208;12.080;2022-07-11T08:23:08;17.10;99.90
39079;DHT22;24829;49.208;12.080;2022-07-11T08:25:34;17.00;99.90
39079;DHT22;24829;49.208;12.080;2022-07-11T08:28:00;17.10;99.90
39079;DHT22;24829;49.208;12.080;2022-07-11T08:30:25;17.20;99.90
39079;DHT22;24829;49.208;12.080;2022-07-11T08:32:51;17.30;99.90
39079;DHT22;24829;49.208;12.080;2022-07-11T08:35:17;17.40;99.90
39079;DHT22;24829;49.208;12.080;2022-07-11T08:37:43;17.40;99.90
39079;DHT22;24829;49.208;12.080;2022-07-11T08:40:09;17.40;99.90
39079;DHT22;24829;49.208;12.080;2022-07-11T08:42:43;17.40;99.90
39079;DHT22;24829;49.208;12.080;2022-07-11T08:45:16;17.40;99.90
39079;DHT22;24829;49.208;12.080;2022-07-11T08:47:43;17.40;99.90
39079;DHT22;24829;49.208;12.080;2022-07-11T08:50:10;17.40;99.90
39079;DHT22;24829;49.208;12.080;2022-07-11T08:52:37;17.40;99.90
39079;DHT22;24829;49.208;12.080;2022-07-11T08:55:04;17.40;99.90
39079;DHT22;24829;49.208;12.080;2022-07-11T08:57:35;17.40;99.90
39079;DHT22;24829;49.208;12.080;2022-07-11T09:00:04;17.40;99.90
39079;DHT22;24829;49.208;12.080;2022-07-11T09:02:32;17.40;99.90
39079;DHT22;24829;49.208;12.080;2022-07-11T09:04:59;17.30;99.90
39079;DHT22;24829;49.208;12.080;2022-07-11T09:07:25;17.20;99.90
39079;DHT22;24829;49.208;12.080;2022-07-11T09:09:52;17.20;99.90
39079;DHT22;24829;49.208;12.080;2022-07-11T09:12:17;17.30;99.90
39079;DHT22;24829;49.208;12.080;2022-07-11T09:14:52;17.20;99.90
39079;DHT22;24829;49.208;12.080;2022-07-11T09:17:25;17.20;99.90
39079;DHT22;24829;49.208;12.080;2022-07-11T09:19:56;17.30;99.90
39079;DHT22;24829;49.208;12.080;2022-07-11T09:22:22;17.30;99.90
39079;DHT22;24829;49.208;12.080;2022-07-11T09:25:09;17.40;99.90
39079;DHT22;24829;49.208;12.080;2022-07-11T09:28:02;17.50;99.90
39079;DHT22;24829;49.208;12.080;2022-07-11T09:30:32;17.60;99.90
39079;DHT22;24829;49.208;12.080;2022-07-11T09:33:09;17.70;99.90
39079;DHT22;24829;49.208;12.080;2022-07-11T09:35:42;17.70;99.90
39079;DHT22;24829;49.208;12.080;2022-07-11T09:38:12;17.70;99.90
39079;DHT22;24829;49.208;12.080;2022-07-11T09:40:42;17.80;99.90
39079;DHT22;24829;49.208;12.080;2022-07-11T09:43:08;17.70;99.90
39079;DHT22;24829;49.208;12.080;2022-07-11T09:45:34;17.70;99.90
39079;DHT22;24829;49.208;12.080;2022-07-11T09:48:11;17.70;99.90
39079;DHT22;24829;49.208;12.080;2022-07-11T09:50:37;17.80;99.90
39079;DHT22;24829;49.208;12.080;2022-07-11T09:53:12;18.00;99.90
39079;DHT22;24829;49.208;12.080;2022-07-11T09:55:43;18.10;99.90
39079;DHT22;24829;49.208;12.080;2022-07-11T09:58:12;18.20;99.90
39079;DHT22;24829;49.208;12.080;2022-07-11T10:00:40;18.30;99.90
39079;DHT22;24829;49.208;12.080;2022-07-11T10:03:08;18.30;99.90
39079;DHT22;24829;49.208;12.080;2022-07-11T10:05:34;18.30;99.90
39079;DHT22;24829;49.208;12.080;2022-07-11T10:08:01;18.30;99.90
39079;DHT22;24829;49.208;12.080;2022-07-11T10:10:28;18.30;99.90
39079;DHT22;24829;49.208;12.080;2022-07-11T10:12:55;18.30;99.90
39079;DHT22;24829;49.208;12.080;2022-07-11T10:15:24;18.50;99.90
39079;DHT22;24829;49.208;12.080;2022-07-11T10:18:17;18.50;99.90
39079;DHT22;24829;49.208;12.080;2022-07-11T10:20:58;18.40;99.90
39079;DHT22;24829;49.208;12.080;2022-07-11T10:23:35;18.50;99.90
39079;DHT22;24829;49.208;12.080;2022-07-11T10:28:54;18.50;99.90
39079;DHT22;24829;49.208;12.080;2022-07-11T10:31:25;18.50;99.90
39079;DHT22;24829;49.208;12.080;2022-07-11T10:34:07;18.60;99.90
39079;DHT22;24829;49.208;12.080;2022-07-11T10:36:42;18.70;99.90
39079;DHT22;24829;49.208;12.080;2022-07-11T10:39:18;18.80;99.90
39079;DHT22;24829;49.208;12.080;2022-07-11T10:41:47;18.80;99.90
39079;DHT22;24829;49.208;12.080;2022-07-11T10:44:13;18.80;99.90
39079;DHT22;24829;49.208;12.080;2022-07-11T10:46:39;19.00;99.90
39079;DHT22;24829;49.208;12.080;2022-07-11T11:02:25;19.60;99.90
39079;DHT22;24829;49.208;12.080;2022-07-11T11:07:41;19.80;99.90
39079;DHT22;24829;49.208;12.080;2022-07-11T11:15:48;19.90;99.90
39079;DHT22;24829;49.208;12.080;2022-07-11T11:23:25;19.90;99.90
39079;DHT22;24829;49.208;12.080;2022-07-11T11:25:52;19.70;99.90
39079;DHT22;24829;49.208;12.080;2022-07-11T11:28:22;19.70;99.90
39079;DHT22;24829;49.208;12.080;2022-07-11T11:30:58;19.60;99.90
39079;DHT22;24829;49.208;12.080;2022-07-11T11:33:34;19.70;99.90
39079;DHT22;24829;49.208;12.080;2022-07-11T11:36:05;19.80;99.90
39079;DHT22;24829;49.208;12.080;2022-07-11T11:38:40;19.80;99.90
39079;DHT22;24829;49.208;12.080;2022-07-11T11:41:07;20.00;99.90
39079;DHT22;24829;49.208;12.080;2022-07-11T11:43:34;20.10;99.90
39079;DHT22;24829;49.208;12.080;2022-07-11T11:46:00;20.20;99.90
39079;DHT22;24829;49.208;12.080;2022-07-11T11:48:31;20.30;99.90
39079;DHT22;24829;49.208;12.080;2022-07-11T11:51:10;20.50;99.90
39079;DHT22;24829;49.208;12.080;2022-07-11T11:53:54;20.70;99.90
39079;DHT22;24829;49.208;12.080;2022-07-11T11:58:48;21.10;99.90
39079;DHT22;24829;49.208;12.080;2022-07-11T12:01:20;21.20;99.90
39079;DHT22;24829;49.208;12.080;2022-07-11T12:06:12;21.40;99.90
39079;DHT22;24829;49.208;12.080;2022-07-11T12:08:37;21.30;99.90
39079;DHT22;24829;49.208;12.080;2022-07-11T12:11:03;21.30;99.70
39079;DHT22;24829;49.208;12.080;2022-07-11T12:13:28;21.20;99.90
39079;DHT22;24829;49.208;12.080;2022-07-11T12:15:54;21.40;99.90
39079;DHT22;24829;49.208;12.080;2022-07-11T12:18:38;21.40;99.50
39079;DHT22;24829;49.208;12.080;2022-07-11T12:21:13;21.30;99.90
39079;DHT22;24829;49.208;12.080;2022-07-11T12:23:39;21.30;99.90
39079;DHT22;24829;49.208;12.080;2022-07-11T12:26:05;21.20;99.90
39079;DHT22;24829;49.208;12.080;2022-07-11T12:28:32;20.90;99.90
39079;DHT22;24829;49.208;12.080;2022-07-11T12:30:58;20.60;99.90
39079;DHT22;24829;49.208;12.080;2022-07-11T12:33:24;20.50;99.90
39079;DHT22;24829;49.208;12.080;2022-07-11T12:35:58;20.50;99.90
39079;DHT22;24829;49.208;12.080;2022-07-11T12:38:24;20.60;99.90
39079;DHT22;24829;49.208;12.080;2022-07-11T12:41:03;20.80;99.90
39079;DHT22;24829;49.208;12.080;2022-07-11T12:44:02;20.80;99.90
39079;DHT22;24829;49.208;12.080;2022-07-11T12:46:46;20.90;99.90
39079;DHT22;24829;49.208;12.080;2022-07-11T12:49:15;20.90;99.90
39079;DHT22;24829;49.208;12.080;2022-07-11T12:51:43;20.90;99.90
39079;DHT22;24829;49.208;12.080;2022-07-11T12:54:11;20.90;99.90
39079;DHT22;24829;49.208;12.080;2022-07-11T12:56:37;20.90;99.90
39079;DHT22;24829;49.208;12.080;2022-07-11T12:59:04;21.00;99.90
39079;DHT22;24829;49.208;12.080;2022-07-11T13:01:31;21.10;99.90
39079;DHT22;24829;49.208;12.080;2022-07-11T13:03:57;21.20;99.90
39079;DHT22;24829;49.208;12.080;2022-07-11T13:06:23;21.30;99.90
39079;DHT22;24829;49.208;12.080;2022-07-11T13:09:13;21.30;99.90
39079;DHT22;24829;49.208;12.080;2022-07-11T13:11:39;21.40;99.90
39079;DHT22;24829;49.208;12.080;2022-07-11T13:14:05;21.50;99.90
39079;DHT22;24829;49.208;12.080;2022-07-11T13:16:50;21.60;99.90
39079;DHT22;24829;49.208;12.080;2022-07-11T13:19:16;21.60;99.90
39079;DHT22;24829;49.208;12.080;2022-07-11T13:21:42;21.50;99.90
39079;DHT22;24829;49.208;12.080;2022-07-11T13:24:07;21.40;99.90
39079;DHT22;24829;49.208;12.080;2022-07-11T13:26:33;21.40;99.90
39079;DHT22;24829;49.208;12.080;2022-07-11T13:28:59;21.50;99.90
39079;DHT22;24829;49.208;12.080;2022-07-11T13:31:26;21.30;99.90
39079;DHT22;24829;49.208;12.080;2022-07-11T13:33:51;21.30;99.90
39079;DHT22;24829;49.208;12.080;2022-07-11T13:36:17;21.40;99.90
39079;DHT22;24829;49.208;12.080;2022-07-11T13:38:42;21.40;99.90
39079;DHT22;24829;49.208;12.080;2022-07-11T13:41:08;21.40;99.90
39079;DHT22;24829;49.208;12.080;2022-07-11T13:43:34;21.60;99.90
39079;DHT22;24829;49.208;12.080;2022-07-11T13:46:00;21.70;99.90
39079;DHT22;24829;49.208;12.080;2022-07-11T13:48:26;21.90;99.90
39079;DHT22;24829;49.208;12.080;2022-07-11T13:50:51;22.00;99.90
39079;DHT22;24829;49.208;12.080;2022-07-11T13:53:17;22.10;99.70
39079;DHT22;24829;49.208;12.080;2022-07-11T13:55:43;22.10;98.50
39079;DHT22;24829;49.208;12.080;2022-07-11T13:58:09;22.00;98.50
39079;DHT22;24829;49.208;12.080;2022-07-11T14:00:50;22.10;99.20
39079;DHT22;24829;49.208;12.080;2022-07-11T14:03:16;22.10;98.30
39079;DHT22;24829;49.208;12.080;2022-07-11T14:05:43;22.10;98.50
39079;DHT22;24829;49.208;12.080;2022-07-11T14:08:09;22.10;98.10
39079;DHT22;24829;49.208;12.080;2022-07-11T14:10:35;22.00;98.80
39079;DHT22;24829;49.208;12.080;2022-07-11T14:13:00;22.00;98.00
39079;DHT22;24829;49.208;12.080;2022-07-11T14:15:26;22.30;97.70
39079;DHT22;24829;49.208;12.080;2022-07-11T14:17:51;22.40;96.80
39079;DHT22;24829;49.208;12.080;2022-07-11T14:20:17;22.30;96.50
39079;DHT22;24829;49.208;12.080;2022-07-11T14:22:42;22.20;96.70
39079;DHT22;24829;49.208;12.080;2022-07-11T14:25:08;22.20;96.90
39079;DHT22;24829;49.208;12.080;2022-07-11T14:27:35;22.20;97.00
39079;DHT22;24829;49.208;12.080;2022-07-11T14:30:04;22.30;96.70
39079;DHT22;24829;49.208;12.080;2022-07-11T14:32:30;22.40;96.40
39079;DHT22;24829;49.208;12.080;2022-07-11T14:34:56;22.30;96.10
39079;DHT22;24829;49.208;12.080;2022-07-11T14:37:22;22.00;95.70
39079;DHT22;24829;49.208;12.080;2022-07-11T14:39:47;21.70;96.40
39079;DHT22;24829;49.208;12.080;2022-07-11T14:42:13;21.50;96.70
39079;DHT22;24829;49.208;12.080;2022-07-11T14:44:38;21.40;96.90
39079;DHT22;24829;49.208;12.080;2022-07-11T14:47:04;21.20;97.10
39079;DHT22;24829;49.208;12.080;2022-07-11T14:49:29;21.10;97.30
39079;DHT22;24829;49.208;12.080;2022-07-11T14:51:55;21.00;97.30
39079;DHT22;24829;49.208;12.080;2022-07-11T14:54:21;20.90;97.30
39079;DHT22;24829;49.208;12.080;2022-07-11T14:56:47;20.90;97.10
39079;DHT22;24829;49.208;12.080;2022-07-11T14:59:12;21.00;97.10
39079;DHT22;24829;49.208;12.080;2022-07-11T15:01:38;21.10;97.30
39079;DHT22;24829;49.208;12.080;2022-07-11T15:04:03;21.20;97.60
39079;DHT22;24829;49.208;12.080;2022-07-11T15:06:29;21.30;97.70
39079;DHT22;24829;49.208;12.080;2022-07-11T15:09:14;21.40;97.40
39079;DHT22;24829;49.208;12.080;2022-07-11T15:11:58;21.60;97.40
39079;DHT22;24829;49.208;12.080;2022-07-11T15:14:42;21.80;96.80
39079;DHT22;24829;49.208;12.080;2022-07-11T15:17:07;21.90;97.00
39079;DHT22;24829;49.208;12.080;2022-07-11T15:19:33;21.90;96.20
39079;DHT22;24829;49.208;12.080;2022-07-11T15:21:58;21.90;95.60
39079;DHT22;24829;49.208;12.080;2022-07-11T15:24:24;21.80;96.00
39079;DHT22;24829;49.208;12.080;2022-07-11T15:26:49;21.80;96.10
39079;DHT22;24829;49.208;12.080;2022-07-11T15:29:15;21.70;96.10
39079;DHT22;24829;49.208;12.080;2022-07-11T15:31:40;21.60;96.00
39079;DHT22;24829;49.208;12.080;2022-07-11T15:34:06;21.40;95.30
39079;DHT22;24829;49.208;12.080;2022-07-11T15:36:32;21.40;95.50
39079;DHT22;24829;49.208;12.080;2022-07-11T15:38:57;21.20;95.90
39079;DHT22;24829;49.208;12.080;2022-07-11T15:41:23;21.10;95.80
39079;DHT22;24829;49.208;12.080;2022-07-11T15:43:48;21.10;95.20
39079;DHT22;24829;49.208;12.080;2022-07-11T15:46:14;21.10;95.40
39079;DHT22;24829;49.208;12.080;2022-07-11T15:48:40;21.10;95.30
39079;DHT22;24829;49.208;12.080;2022-07-11T15:51:06;21.10;95.60